Portada
METAR-TAF:

METAR-TAF

Aeroports :

Vorónej, Rússia

latitud: 51-39N, longitud: 039-15E, altitud: 154 m

Observació

L'informe es va fer fa 26 minuts, a les 23:30 UTC
Vent 6 kt del Nord-Oest
Temperatura 16°C
Humitat 88%
Pressió 1010 hPa
Visibilitat: 9000 m

METAR: UUOO 112330Z 31003MPS 9000 NSC 16/14 Q1010 R30/190060 NOSIG RMK QFE744

Hora: 02:56 (23:56 UTC)

Pronòstic

L'informe es va fer fa 57 minuts, a les 22:59 UTC
Pronòstic vàlid del 12 a les 00 UTC al 12 a les 09 UTC
Vent 6 kt del Nord
Visibilitat 10 km o més
Núvols disperses a una alçada de 3000 ft, Cumulonimbus.
Cel ennuvolat a una alçada de 4000 ft
Temporalment
l' 12 a les 00 UTC al 12 a les 06 UTC
Cel ennuvolat a una alçada de 3000 ft, Cumulonimbus.
tempesta, pluja

TAF: UUOO 112259Z 1200/1209 35003MPS 9999 SCT030CB BKN040 TEMPO 1200/1206 -TSRA BKN030CB

Observacions i pronòstics meteorològics de més de 4000 aeroports (METAR i TAF).

Les estacions disponibles són els punts grocs i vermells al mapa.

Posi el ratolí al punt desitjat per veure el nom de l'estació.

Feu clic per veure les observacions i els pronòstics meteorològics.

Per canviar el mapa: feu clic els botons verds amb una creu de color negre per apropar; al botó verd amb un guió per allunyar la imatge; o en les fletxes verdes per a mapes adjacents.


METAR-TAF: